Time;durP1;ratioP1;P1;durP2;ratioP2;P2;SDS_P1;SDS_P2;PMS_P1;PMS_P2;Temp;Humidity;BMP_temperature;BMP_pressure;BME280_temperature;BME280_humidity;BME280_pressure;Samples;Min_cycle;Max_cycle;Signal;HPM_P1;HPM_P2
2021/10/30 00:02:24;;;;;;;;;;;;;;;;;;5025602;28;20150;-69
2021/10/30 00:04:51;;;;;;;;;;;;;;;;;;5024043;28;19925;-69
2021/10/30 00:07:19;;;;;;;;;;;;;;;;;;5026752;28;19931;-69
2021/10/30 00:09:46;;;;;;;;;;;;;;;;;;5018806;28;19977;-68
2021/10/30 00:12:13;;;;;;;;;;;;;;;;;;5020793;28;19925;-69
2021/10/30 00:14:42;;;;;;;;;;;;;;;;;;5026449;28;19925;-69
2021/10/30 00:17:09;;;;;;;;;;;;;;;;;;5019557;28;19933;-69
2021/10/30 00:19:36;;;;;;;;;;;;;;;;;;5021118;28;20313;-68
2021/10/30 00:22:03;;;;;;;;;;;;;;;;;;5027285;28;19925;-68
2021/10/30 00:24:31;;;;;;;;;;;;;;;;;;5026909;28;19925;-68
2021/10/30 00:26:58;;;;;;;;;;;;;;;;;;5020077;28;20316;-69
2021/10/30 00:29:25;;;;;;;;;;;;;;;;;;5023862;28;19929;-69
2021/10/30 00:31:53;;;;;;;;;;;;;;;;;;5028921;28;20439;-68
2021/10/30 00:34:20;;;;;;;;;;;;;;;;;;5028047;28;19925;-68
2021/10/30 00:36:47;;;;;;;;;;;;;;;;;;5019109;28;20435;-70
2021/10/30 00:39:14;;;;;;;;;;;;;;;;;;5027131;28;19952;-69
2021/10/30 00:41:41;;;;;;;;;;;;;;;;;;5024633;28;19925;-68
2021/10/30 00:44:08;;;;;;;;;;;;;;;;;;5024039;28;19927;-68
2021/10/30 00:46:35;;;;;;;;;;;;;;;;;;5017245;28;19929;-68
2021/10/30 00:49:02;;;;;;;;;;;;;;;;;;5019104;28;19925;-68
2021/10/30 00:51:29;;;;;;;;;;;;;;;;;;5024592;28;19948;-69
2021/10/30 00:53:56;;;;;;;;;;;;;;;;;;5025199;28;19960;-69
2021/10/30 00:56:23;;;;;;;;;;;;;;;;;;5028262;28;20319;-69
2021/10/30 00:58:49;;;;;;;;;;;;;;;;;;5029362;28;20313;-69
2021/10/30 01:01:16;;;;;;;;;;;;;;;;;;5022384;28;19925;-68
2021/10/30 01:03:44;;;;;;;;;;;;;;;;;;5028865;28;19925;-68
2021/10/30 01:06:11;;;;;;;;;;;;;;;;;;5026987;28;20297;-69
2021/10/30 01:08:38;;;;;;;;;;;;;;;;;;5024140;28;20290;-70
2021/10/30 01:11:05;;;;;;;;;;;;;;;;;;5020147;28;19933;-68
2021/10/30 01:13:32;;;;;;;;;;;;;;;;;;5018502;28;20008;-68
2021/10/30 01:15:59;;;;;;;;;;;;;;;;;;5021529;28;19941;-68
2021/10/30 01:18:26;;;;;;;;;;;;;;;;;;5029527;28;20253;-68
2021/10/30 01:20:53;;;;;;;;;;;;;;;;;;5024845;28;20016;-69
2021/10/30 01:23:19;;;;;;;;;;;;;;;;;;5028533;28;20036;-69
2021/10/30 01:25:46;;;;;;;;;;;;;;;;;;5031631;28;19925;-69
2021/10/30 01:28:13;;;;;;;;;;;;;;;;;;5031152;28;19925;-70
2021/10/30 01:30:40;;;;;;;;;;;;;;;;;;5032166;28;19936;-69
2021/10/30 01:33:08;;;;;;;;;;;;;;;;;;5028541;28;19925;-69
2021/10/30 01:35:35;;;;;;;;;;;;;;;;;;5030233;28;19939;-69
2021/10/30 01:38:02;;;;;;;;;;;;;;;;;;5030443;28;20017;-68
2021/10/30 01:40:29;;;;;;;;;;;;;;;;;;5035409;28;19941;-69
2021/10/30 01:42:57;;;;;;;;;;;;;;;;;;5029037;28;19925;-68
2021/10/30 01:45:24;;;;;;;;;;;;;;;;;;5026657;28;19925;-69
2021/10/30 01:47:51;;;;;;;;;;;;;;;;;;5031802;28;19932;-68
2021/10/30 01:50:18;;;;;;;;;;;;;;;;;;5028020;28;19937;-69
2021/10/30 01:52:45;;;;;;;;;;;;;;;;;;5026921;28;19933;-69
2021/10/30 01:55:12;;;;;;;;;;;;;;;;;;5027799;28;20401;-69
2021/10/30 01:57:39;;;;;;;;;;;;;;;;;;5028580;28;19925;-69
2021/10/30 02:00:05;;;;;;;;;;;;;;;;;;5027446;28;20389;-69
2021/10/30 02:02:32;;;;;;;;;;;;;;;;;;5030020;28;19947;-69
2021/10/30 02:04:59;;;;;;;;;;;;;;;;;;5023522;28;19933;-68
2021/10/30 02:07:26;;;;;;;;;;;;;;;;;;5026332;28;19925;-68
2021/10/30 02:09:53;;;;;;;;;;;;;;;;;;5027522;28;19925;-69
2021/10/30 02:12:20;;;;;;;;;;;;;;;;;;5026149;28;19932;-69
2021/10/30 02:14:47;;;;;;;;;;;;;;;;;;5026528;28;19925;-69
2021/10/30 02:17:14;;;;;;;;;;;;;;;;;;5029316;28;19951;-69
2021/10/30 02:19:41;;;;;;;;;;;;;;;;;;5027198;28;19979;-69
2021/10/30 02:22:08;;;;;;;;;;;;;;;;;;5025956;28;19944;-68
2021/10/30 02:24:35;;;;;;;;;;;;;;;;;;5030846;28;20338;-69
2021/10/30 02:27:02;;;;;;;;;;;;;;;;;;5028974;28;19925;-69
2021/10/30 02:29:29;;;;;;;;;;;;;;;;;;5029004;28;20028;-68
2021/10/30 02:31:56;;;;;;;;;;;;;;;;;;5029307;28;19931;-70
2021/10/30 02:34:23;;;;;;;;;;;;;;;;;;5029277;28;19925;-68
2021/10/30 02:36:50;;;;;;;;;;;;;;;;;;5027464;28;19926;-70
2021/10/30 02:39:17;;;;;;;;;;;;;;;;;;5023012;28;19947;-69
2021/10/30 02:41:44;;;;;;;;;;;;;;;;;;5028789;28;19932;-69
2021/10/30 02:44:11;;;;;;;;;;;;;;;;;;5032019;28;19956;-69
2021/10/30 02:46:38;;;;;;;;;;;;;;;;;;5024568;28;19944;-68
2021/10/30 02:49:05;;;;;;;;;;;;;;;;;;5022653;28;19933;-69
2021/10/30 02:51:32;;;;;;;;;;;;;;;;;;5027274;28;20302;-69
2021/10/30 02:53:59;;;;;;;;;;;;;;;;;;5027494;28;20400;-70
2021/10/30 02:56:25;;;;;;;;;;;;;;;;;;5024953;28;19932;-69
2021/10/30 02:58:52;;;;;;;;;;;;;;;;;;5026478;28;19947;-69
2021/10/30 03:01:19;;;;;;;;;;;;;;;;;;5029605;28;19932;-70
2021/10/30 03:03:46;;;;;;;;;;;;;;;;;;5025878;28;19944;-70
2021/10/30 03:06:15;;;;;;;;;;;;;;;;;;5023213;28;19925;-70
2021/10/30 03:08:42;;;;;;;;;;;;;;;;;;5028177;28;20401;-70
2021/10/30 03:11:09;;;;;;;;;;;;;;;;;;5025067;28;19931;-70
2021/10/30 03:13:35;;;;;;;;;;;;;;;;;;5019826;28;19929;-70
2021/10/30 03:16:02;;;;;;;;;;;;;;;;;;5025268;28;19925;-70
2021/10/30 03:18:29;;;;;;;;;;;;;;;;;;5030596;28;20389;-69
2021/10/30 03:20:56;;;;;;;;;;;;;;;;;;5024997;28;19932;-70
2021/10/30 03:23:23;;;;;;;;;;;;;;;;;;5030152;28;19925;-70
2021/10/30 03:25:50;;;;;;;;;;;;;;;;;;5029275;28;19941;-70
2021/10/30 03:28:17;;;;;;;;;;;;;;;;;;5027687;28;19932;-70
2021/10/30 03:30:44;;;;;;;;;;;;;;;;;;5024136;28;20390;-70
2021/10/30 03:33:11;;;;;;;;;;;;;;;;;;5027246;28;19933;-69
2021/10/30 03:35:38;;;;;;;;;;;;;;;;;;5022348;28;20286;-70
2021/10/30 03:38:05;;;;;;;;;;;;;;;;;;5026868;28;19933;-69
2021/10/30 03:40:32;;;;;;;;;;;;;;;;;;5021677;28;19925;-70
2021/10/30 03:42:59;;;;;;;;;;;;;;;;;;5042073;22;19925;-58
2021/10/30 03:45:26;;;;;;;;;;;;;;;;;;5025378;28;20011;-58
2021/10/30 03:47:53;;;;;;;;;;;;;;;;;;5024980;28;19925;-60
2021/10/30 03:50:20;;;;;;;;;;;;;;;;;;5023880;28;19929;-58
2021/10/30 03:52:47;;;;;;;;;;;;;;;;;;5025977;28;20277;-58
2021/10/30 03:55:14;;;;;;;;;;;;;;;;;;5029091;28;19933;-59
2021/10/30 03:57:41;;;;;;;;;;;;;;;;;;5031000;28;19931;-58
2021/10/30 04:00:08;;;;;;;;;;;;;;;;;;5017087;28;19929;-59
2021/10/30 04:02:35;;;;;;;;;;;;;;;;;;5029046;28;20270;-58
2021/10/30 04:05:01;;;;;;;;;;;;;;;;;;5030979;28;19929;-59
2021/10/30 04:07:28;;;;;;;;;;;;;;;;;;5021014;28;19926;-59
2021/10/30 04:09:55;;;;;;;;;;;;;;;;;;5025290;28;19953;-58
2021/10/30 04:12:22;;;;;;;;;;;;;;;;;;5018182;28;19929;-54
2021/10/30 04:14:49;;;;;;;;;;;;;;;;;;5021728;28;19952;-57
2021/10/30 04:17:16;;;;;;;;;;;;;;;;;;5030154;28;19932;-57
2021/10/30 04:19:43;;;;;;;;;;;;;;;;;;5030051;28;19937;-60
2021/10/30 04:22:10;;;;;;;;;;;;;;;;;;5024760;28;19931;-63
2021/10/30 04:24:37;;;;;;;;;;;;;;;;;;5023409;28;20534;-60
2021/10/30 04:27:04;;;;;;;;;;;;;;;;;;5031410;28;19931;-60
2021/10/30 04:29:31;;;;;;;;;;;;;;;;;;5024842;28;19925;-61
2021/10/30 04:32:00;;;;;;;;;;;;;;;;;;5030182;28;19925;-60
2021/10/30 04:34:40;;;;;;;;;;;;;;;;;;5026118;28;20012;-58
2021/10/30 04:37:13;;;;;;;;;;;;;;;;;;5030324;28;19979;-60
2021/10/30 04:39:40;;;;;;;;;;;;;;;;;;5023344;28;20022;-59
2021/10/30 04:42:08;;;;;;;;;;;;;;;;;;5031566;28;19925;-60
2021/10/30 04:44:35;;;;;;;;;;;;;;;;;;5027978;28;20328;-60
2021/10/30 04:47:02;;;;;;;;;;;;;;;;;;5024072;28;19925;-60
2021/10/30 04:49:29;;;;;;;;;;;;;;;;;;5028037;28;19979;-59
2021/10/30 04:51:56;;;;;;;;;;;;;;;;;;5027656;28;19932;-61
2021/10/30 04:54:23;;;;;;;;;;;;;;;;;;5027599;28;19932;-61
2021/10/30 04:56:50;;;;;;;;;;;;;;;;;;5029723;28;19932;-59
2021/10/30 04:59:17;;;;;;;;;;;;;;;;;;5033045;28;19928;-58
2021/10/30 05:01:44;;;;;;;;;;;;;;;;;;5027793;28;19929;-60
2021/10/30 05:04:11;;;;;;;;;;;;;;;;;;5025748;28;19933;-60
2021/10/30 05:06:38;;;;;;;;;;;;;;;;;;5024365;28;19925;-61
2021/10/30 05:09:05;;;;;;;;;;;;;;;;;;5034216;28;20412;-60
2021/10/30 05:11:32;;;;;;;;;;;;;;;;;;5035665;28;20028;-60
2021/10/30 05:13:59;;;;;;;;;;;;;;;;;;5033459;28;20346;-61
2021/10/30 05:16:25;;;;;;;;;;;;;;;;;;5031920;28;19933;-61
2021/10/30 05:18:52;;;;;;;;;;;;;;;;;;5031339;28;19933;-60
2021/10/30 05:21:19;;;;;;;;;;;;;;;;;;5034394;28;19939;-60
2021/10/30 05:23:46;;;;;;;;;;;;;;;;;;5035172;28;19933;-59
2021/10/30 05:26:13;;;;;;;;;;;;;;;;;;5029147;28;19944;-60
2021/10/30 05:28:40;;;;;;;;;;;;;;;;;;5031555;28;19925;-59
2021/10/30 05:31:07;;;;;;;;;;;;;;;;;;5032516;28;20501;-58
2021/10/30 05:33:34;;;;;;;;;;;;;;;;;;5029167;28;19929;-60
2021/10/30 05:36:04;;;;;;;;;;;;;;;;;;5031728;28;19931;-59
2021/10/30 05:38:31;;;;;;;;;;;;;;;;;;5025567;28;19929;-59
2021/10/30 05:40:58;;;;;;;;;;;;;;;;;;5033950;28;20385;-60
2021/10/30 05:43:25;;;;;;;;;;;;;;;;;;5027731;28;19925;-61
2021/10/30 05:45:52;;;;;;;;;;;;;;;;;;5033788;28;19939;-60
2021/10/30 05:48:19;;;;;;;;;;;;;;;;;;5034232;28;19925;-60
2021/10/30 05:50:46;;;;;;;;;;;;;;;;;;5027878;28;20361;-60
2021/10/30 05:53:13;;;;;;;;;;;;;;;;;;5032807;28;19933;-60
2021/10/30 05:55:40;;;;;;;;;;;;;;;;;;5033335;28;19936;-60
2021/10/30 05:58:07;;;;;;;;;;;;;;;;;;5031893;28;20435;-60
2021/10/30 06:00:34;;;;;;;;;;;;;;;;;;5030687;28;20017;-61
2021/10/30 06:03:01;;;;;;;;;;;;;;;;;;5038397;28;19932;-61
2021/10/30 06:05:28;;;;;;;;;;;;;;;;;;5035171;28;19972;-60
2021/10/30 06:07:56;;;;;;;;;;;;;;;;;;5029391;28;19926;-60
2021/10/30 06:10:23;;;;;;;;;;;;;;;;;;5035551;28;19936;-61
2021/10/30 06:12:50;;;;;;;;;;;;;;;;;;5035144;28;20239;-61
2021/10/30 06:15:17;;;;;;;;;;;;;;;;;;5035494;28;19925;-61
2021/10/30 06:17:44;;;;;;;;;;;;;;;;;;5035774;28;19926;-59
2021/10/30 06:20:11;;;;;;;;;;;;;;;;;;5033056;28;19933;-58
2021/10/30 06:22:42;;;;;;;;;;;;;;;;;;5032343;28;19932;-60
2021/10/30 06:25:09;;;;;;;;;;;;;;;;;;5033500;28;19932;-60
2021/10/30 06:27:36;;;;;;;;;;;;;;;;;;5029967;28;19929;-61
2021/10/30 06:30:03;;;;;;;;;;;;;;;;;;5031133;28;20387;-60
2021/10/30 06:32:30;;;;;;;;;;;;;;;;;;5032077;28;19925;-59
2021/10/30 06:34:57;;;;;;;;;;;;;;;;;;5030461;28;19932;-60
2021/10/30 06:37:24;;;;;;;;;;;;;;;;;;5030993;28;19933;-62
2021/10/30 06:39:51;;;;;;;;;;;;;;;;;;5027631;28;19940;-61
2021/10/30 06:42:18;;;;;;;;;;;;;;;;;;5030823;28;20324;-61
2021/10/30 06:44:45;;;;;;;;;;;;;;;;;;5030211;28;19948;-62
2021/10/30 06:47:14;;;;;;;;;;;;;;;;;;5032828;28;19925;-62
2021/10/30 06:49:41;;;;;;;;;;;;;;;;;;5030910;28;19932;-61
2021/10/30 06:52:09;;;;;;;;;;;;;;;;;;5033996;28;19960;-61
2021/10/30 06:54:36;;;;;;;;;;;;;;;;;;5031687;28;20026;-60
2021/10/30 06:57:03;;;;;;;;;;;;;;;;;;5033249;28;19929;-61
2021/10/30 06:59:31;;;;;;;;;;;;;;;;;;5032898;28;19951;-61
2021/10/30 07:01:58;;;;;;;;;;;;;;;;;;5030141;28;21357;-60
2021/10/30 07:04:25;;;;;;;;;;;;;;;;;;5045688;28;19925;-60
2021/10/30 07:06:52;;;;;;;;;;;;;;;;;;5034582;28;20288;-60
2021/10/30 07:09:19;;;;;;;;;;;;;;;;;;5045753;28;19925;-58
2021/10/30 07:11:46;;;;;;;;;;;;;;;;;;5036469;28;19983;-59
2021/10/30 07:14:13;;;;;;;;;;;;;;;;;;5053831;28;19931;-57
2021/10/30 07:16:40;;;;;;;;;;;;;;;;;;5039589;28;19935;-60
2021/10/30 07:19:07;;;;;;;;;;;;;;;;;;5036881;28;19925;-59
2021/10/30 07:21:34;;;;;;;;;;;;;;;;;;5041370;28;20039;-59
2021/10/30 07:24:02;;;;;;;;;;;;;;;;;;5043731;28;20429;-58
2021/10/30 07:26:29;;;;;;;;;;;;;;;;;;5035681;28;19925;-61
2021/10/30 07:28:55;;;;;;;;;;;;;;;;;;5036365;28;19925;-60
2021/10/30 07:31:22;;;;;;;;;;;;;;;;;;5038396;28;19925;-60
2021/10/30 07:33:49;;;;;;;;;;;;;;;;;;5039711;28;19931;-59
2021/10/30 07:36:16;;;;;;;;;;;;;;;;;;5035880;28;19931;-58
2021/10/30 07:38:43;;;;;;;;;;;;;;;;;;5043531;28;20308;-60
2021/10/30 07:41:10;;;;;;;;;;;;;;;;;;5034664;28;19932;-58
2021/10/30 07:43:37;;;;;;;;;;;;;;;;;;5035802;28;19935;-59
2021/10/30 07:46:04;;;;;;;;;;;;;;;;;;5038325;28;20020;-61
2021/10/30 07:48:31;;;;;;;;;;;;;;;;;;5043301;28;19964;-60
2021/10/30 07:50:58;;;;;;;;;;;;;;;;;;5041077;28;19977;-60
2021/10/30 07:53:25;;;;;;;;;;;;;;;;;;5034524;28;19931;-57
2021/10/30 07:55:52;;;;;;;;;;;;;;;;;;5040695;28;19935;-59
2021/10/30 07:58:19;;;;;;;;;;;;;;;;;;5035250;28;19925;-61
2021/10/30 08:00:46;;;;;;;;;;;;;;;;;;5037062;28;19925;-60
2021/10/30 08:03:13;;;;;;;;;;;;;;;;;;5040298;28;19973;-59
2021/10/30 08:05:40;;;;;;;;;;;;;;;;;;5032768;28;19971;-56
2021/10/30 08:08:08;;;;;;;;;;;;;;;;;;5032946;28;19925;-55
2021/10/30 08:10:35;;;;;;;;;;;;;;;;;;5035751;28;20024;-57
2021/10/30 08:13:02;;;;;;;;;;;;;;;;;;5048465;28;19925;-58
2021/10/30 08:15:29;;;;;;;;;;;;;;;;;;5042588;28;19960;-61
2021/10/30 08:17:56;;;;;;;;;;;;;;;;;;5037394;28;19964;-58
2021/10/30 08:20:23;;;;;;;;;;;;;;;;;;5040170;28;19972;-59
2021/10/30 08:22:50;;;;;;;;;;;;;;;;;;5043533;28;19931;-59
2021/10/30 08:25:17;;;;;;;;;;;;;;;;;;5039369;28;19925;-60
2021/10/30 08:27:44;;;;;;;;;;;;;;;;;;5043227;28;20373;-60
2021/10/30 08:30:11;;;;;;;;;;;;;;;;;;5040190;28;21064;-61
2021/10/30 08:32:38;;;;;;;;;;;;;;;;;;5040655;28;19981;-60
2021/10/30 08:35:05;;;;;;;;;;;;;;;;;;5036929;28;20012;-57
2021/10/30 08:37:31;;;;;;;;;;;;;;;;;;5037379;28;20028;-59
2021/10/30 08:39:58;;;;;;;;;;;;;;;;;;5029621;28;20251;-61
2021/10/30 08:42:26;;;;;;;;;;;;;;;;;;5035389;28;20420;-61
2021/10/30 08:44:53;;;;;;;;;;;;;;;;;;5036622;28;19925;-60
2021/10/30 08:47:20;;;;;;;;;;;;;;;;;;5027987;28;19925;-60
2021/10/30 08:49:46;;;;;;;;;;;;;;;;;;5037367;28;19932;-60
2021/10/30 08:52:13;;;;;;;;;;;;;;;;;;5028199;28;20405;-61
2021/10/30 08:54:40;;;;;;;;;;;;;;;;;;5037637;28;19953;-60
2021/10/30 08:57:08;;;;;;;;;;;;;;;;;;5035489;28;19926;-61
2021/10/30 08:59:35;;;;;;;;;;;;;;;;;;5043397;28;19932;-58
2021/10/30 09:02:02;;;;;;;;;;;;;;;;;;5039754;28;19932;-59
2021/10/30 09:04:29;;;;;;;;;;;;;;;;;;5033878;28;20063;-58
2021/10/30 09:06:56;;;;;;;;;;;;;;;;;;5039939;28;19925;-59
2021/10/30 09:09:23;;;;;;;;;;;;;;;;;;5035293;28;19992;-59
2021/10/30 09:11:50;;;;;;;;;;;;;;;;;;5032843;28;20024;-59
2021/10/30 09:14:17;;;;;;;;;;;;;;;;;;5035612;28;20012;-59
2021/10/30 09:16:44;;;;;;;;;;;;;;;;;;5041682;28;19933;-58
2021/10/30 09:19:11;;;;;;;;;;;;;;;;;;5041585;28;20047;-59
2021/10/30 09:21:38;;;;;;;;;;;;;;;;;;5032871;28;19925;-59
2021/10/30 09:24:05;;;;;;;;;;;;;;;;;;5038532;28;20020;-59
2021/10/30 09:26:34;;;;;;;;;;;;;;;;;;5038378;28;19968;-60
2021/10/30 09:29:01;;;;;;;;;;;;;;;;;;5037316;28;20397;-59
2021/10/30 09:31:28;;;;;;;;;;;;;;;;;;5036605;28;19982;-59
2021/10/30 09:33:55;;;;;;;;;;;;;;;;;;5037502;28;19925;-56
2021/10/30 09:36:22;;;;;;;;;;;;;;;;;;5041489;28;19925;-58
2021/10/30 09:38:49;;;;;;;;;;;;;;;;;;5025294;28;19948;-57
2021/10/30 09:41:16;;;;;;;;;;;;;;;;;;5031821;28;19985;-58
2021/10/30 09:43:43;;;;;;;;;;;;;;;;;;5030908;28;19925;-58
2021/10/30 09:46:11;;;;;;;;;;;;;;;;;;5032395;28;20012;-58
2021/10/30 09:48:38;;;;;;;;;;;;;;;;;;5031307;28;19932;-56
2021/10/30 09:51:05;;;;;;;;;;;;;;;;;;5038237;28;19945;-58
2021/10/30 09:53:32;;;;;;;;;;;;;;;;;;5035311;28;19932;-59
2021/10/30 09:55:59;;;;;;;;;;;;;;;;;;5041741;28;19925;-59
2021/10/30 09:58:26;;;;;;;;;;;;;;;;;;5055856;28;20007;-60
2021/10/30 10:00:53;;;;;;;;;;;;;;;;;;5042223;28;19925;-60
2021/10/30 10:03:20;;;;;;;;;;;;;;;;;;5031445;28;19933;-61
2021/10/30 10:05:47;;;;;;;;;;;;;;;;;;5031528;28;19947;-60
2021/10/30 10:08:14;;;;;;;;;;;;;;;;;;5027575;28;19932;-60
2021/10/30 10:10:41;;;;;;;;;;;;;;;;;;5031546;28;19925;-59
2021/10/30 10:13:08;;;;;;;;;;;;;;;;;;5032198;28;19932;-61
2021/10/30 10:15:35;;;;;;;;;;;;;;;;;;5031386;28;20389;-60
2021/10/30 10:18:02;;;;;;;;;;;;;;;;;;5036961;28;19957;-60
2021/10/30 10:20:29;;;;;;;;;;;;;;;;;;5025644;28;19925;-60
2021/10/30 10:22:56;;;;;;;;;;;;;;;;;;5026281;28;19926;-60
2021/10/30 10:25:23;;;;;;;;;;;;;;;;;;5029775;28;19992;-60
2021/10/30 10:27:50;;;;;;;;;;;;;;;;;;5036114;28;19951;-60
2021/10/30 10:30:17;;;;;;;;;;;;;;;;;;5028357;28;20016;-60
2021/10/30 10:32:44;;;;;;;;;;;;;;;;;;5031029;28;20445;-61
2021/10/30 10:35:11;;;;;;;;;;;;;;;;;;5027984;28;20294;-60
2021/10/30 10:37:38;;;;;;;;;;;;;;;;;;5026536;28;20016;-60
2021/10/30 10:40:05;;;;;;;;;;;;;;;;;;5029863;28;19951;-59
2021/10/30 10:42:32;;;;;;;;;;;;;;;;;;5030923;28;20320;-60
2021/10/30 10:44:59;;;;;;;;;;;;;;;;;;5031168;28;19925;-60
2021/10/30 10:47:26;;;;;;;;;;;;;;;;;;5030644;28;19979;-59
2021/10/30 10:49:53;;;;;;;;;;;;;;;;;;5032873;28;20364;-57
2021/10/30 10:52:21;;;;;;;;;;;;;;;;;;5031374;28;19925;-60
2021/10/30 10:54:48;;;;;;;;;;;;;;;;;;5024838;28;19925;-60
2021/10/30 10:57:15;;;;;;;;;;;;;;;;;;5032924;28;19965;-59
2021/10/30 10:59:42;;;;;;;;;;;;;;;;;;5025929;28;20301;-60
2021/10/30 11:02:09;;;;;;;;;;;;;;;;;;5026470;28;20441;-60
2021/10/30 11:04:36;;;;;;;;;;;;;;;;;;5025427;28;19925;-59
2021/10/30 11:07:03;;;;;;;;;;;;;;;;;;5025026;28;19925;-59
2021/10/30 11:09:31;;;;;;;;;;;;;;;;;;5023681;28;19925;-59
2021/10/30 11:11:58;;;;;;;;;;;;;;;;;;5027511;28;19932;-54
2021/10/30 11:14:25;;;;;;;;;;;;;;;;;;5025889;28;19929;-56
2021/10/30 11:16:54;;;;;;;;;;;;;;;;;;5025066;28;20281;-58
2021/10/30 11:19:24;;;;;;;;;;;;;;;;;;5028933;28;20335;-61
2021/10/30 11:21:52;;;;;;;;;;;;;;;;;;5022916;28;19952;-60
2021/10/30 11:24:19;;;;;;;;;;;;;;;;;;5029782;28;19925;-60
2021/10/30 11:26:46;;;;;;;;;;;;;;;;;;5030437;28;19929;-61
2021/10/30 11:29:13;;;;;;;;;;;;;;;;;;5023552;28;19947;-59
2021/10/30 11:31:39;;;;;;;;;;;;;;;;;;5032516;28;19925;-60
2021/10/30 11:34:06;;;;;;;;;;;;;;;;;;5030841;28;19931;-60
2021/10/30 11:36:35;;;;;;;;;;;;;;;;;;5020699;28;19940;-60
2021/10/30 11:39:02;;;;;;;;;;;;;;;;;;5024946;28;20035;-61
2021/10/30 11:41:29;;;;;;;;;;;;;;;;;;5024143;28;19932;-60
2021/10/30 11:43:56;;;;;;;;;;;;;;;;;;5028464;28;19929;-60
2021/10/30 11:46:23;;;;;;;;;;;;;;;;;;5029367;28;19940;-60
2021/10/30 11:48:50;;;;;;;;;;;;;;;;;;5029957;28;20423;-60
2021/10/30 11:51:17;;;;;;;;;;;;;;;;;;5032307;28;19925;-60
2021/10/30 11:53:44;;;;;;;;;;;;;;;;;;5029420;28;19933;-60
2021/10/30 11:56:11;;;;;;;;;;;;;;;;;;5029113;28;19939;-63
2021/10/30 11:58:38;;;;;;;;;;;;;;;;;;5027715;28;19979;-62
2021/10/30 12:01:05;;;;;;;;;;;;;;;;;;5022510;28;19944;-61
2021/10/30 12:03:32;;;;;;;;;;;;;;;;;;5025713;28;20015;-61
2021/10/30 12:05:59;;;;;;;;;;;;;;;;;;5025551;28;19940;-60
2021/10/30 12:08:26;;;;;;;;;;;;;;;;;;5028327;28;19929;-61
2021/10/30 12:10:53;;;;;;;;;;;;;;;;;;5032749;28;19952;-60
2021/10/30 12:13:20;;;;;;;;;;;;;;;;;;5036432;28;19925;-62
2021/10/30 12:15:47;;;;;;;;;;;;;;;;;;5031272;28;19925;-60
2021/10/30 12:18:14;;;;;;;;;;;;;;;;;;5028323;28;19940;-60
2021/10/30 12:20:41;;;;;;;;;;;;;;;;;;5030691;28;19926;-61
2021/10/30 12:23:08;;;;;;;;;;;;;;;;;;5030723;28;19925;-60
2021/10/30 12:25:35;;;;;;;;;;;;;;;;;;5027126;28;19926;-61
2021/10/30 12:28:04;;;;;;;;;;;;;;;;;;5029606;28;20302;-60
2021/10/30 12:30:32;;;;;;;;;;;;;;;;;;5033961;28;19925;-59
2021/10/30 12:32:59;;;;;;;;;;;;;;;;;;5026342;28;19929;-61
2021/10/30 12:35:26;;;;;;;;;;;;;;;;;;5032392;28;19943;-62
2021/10/30 12:37:53;;;;;;;;;;;;;;;;;;5029494;28;19931;-61
2021/10/30 12:40:23;;;;;;;;;;;;;;;;;;5028172;28;19931;-61
2021/10/30 12:42:50;;;;;;;;;;;;;;;;;;5029822;28;20012;-60
2021/10/30 12:45:17;;;;;;;;;;;;;;;;;;5025102;28;19929;-60
2021/10/30 12:47:44;;;;;;;;;;;;;;;;;;5031347;28;20008;-58
2021/10/30 12:50:11;;;;;;;;;;;;;;;;;;5027403;28;19925;-60
2021/10/30 12:52:38;;;;;;;;;;;;;;;;;;5024666;28;19929;-60
2021/10/30 12:55:05;;;;;;;;;;;;;;;;;;5027813;28;19929;-57
2021/10/30 12:57:32;;;;;;;;;;;;;;;;;;5022487;28;19932;-56
2021/10/30 12:59:59;;;;;;;;;;;;;;;;;;5023864;28;20335;-55
2021/10/30 13:02:26;;;;;;;;;;;;;;;;;;5024473;28;19932;-58
2021/10/30 13:04:53;;;;;;;;;;;;;;;;;;5024604;28;19929;-59
2021/10/30 13:07:20;;;;;;;;;;;;;;;;;;5024342;28;20298;-58
2021/10/30 13:09:46;;;;;;;;;;;;;;;;;;5023160;28;19930;-56
2021/10/30 13:12:13;;;;;;;;;;;;;;;;;;5020521;28;19944;-57
2021/10/30 13:14:40;;;;;;;;;;;;;;;;;;5020439;28;20033;-58
2021/10/30 13:17:07;;;;;;;;;;;;;;;;;;5033035;28;20043;-57
2021/10/30 13:19:34;;;;;;;;;;;;;;;;;;5029732;28;19925;-56
2021/10/30 13:22:01;;;;;;;;;;;;;;;;;;5028077;28;19925;-57
2021/10/30 13:24:28;;;;;;;;;;;;;;;;;;5023682;28;19932;-57
2021/10/30 13:26:55;;;;;;;;;;;;;;;;;;5029193;28;19926;-57
2021/10/30 13:29:22;;;;;;;;;;;;;;;;;;5026659;28;20032;-55
2021/10/30 13:31:49;;;;;;;;;;;;;;;;;;5027672;28;19926;-57
2021/10/30 13:34:16;;;;;;;;;;;;;;;;;;5027317;28;19933;-58
2021/10/30 13:36:43;;;;;;;;;;;;;;;;;;5028694;28;20282;-57
2021/10/30 13:39:10;;;;;;;;;;;;;;;;;;5031665;28;20372;-59
2021/10/30 13:41:37;;;;;;;;;;;;;;;;;;5028060;28;19932;-58
2021/10/30 13:44:04;;;;;;;;;;;;;;;;;;5023607;28;19963;-56
2021/10/30 13:46:31;;;;;;;;;;;;;;;;;;5030816;28;19973;-56
2021/10/30 13:48:59;;;;;;;;;;;;;;;;;;5024250;28;20048;-58
2021/10/30 13:51:26;;;;;;;;;;;;;;;;;;5028640;28;19925;-59
2021/10/30 13:53:54;;;;;;;;;;;;;;;;;;5027846;28;19929;-58
2021/10/30 13:56:21;;;;;;;;;;;;;;;;;;5026940;28;19933;-58
2021/10/30 13:58:48;;;;;;;;;;;;;;;;;;5030543;28;19926;-58
2021/10/30 14:01:16;;;;;;;;;;;;;;;;;;5025738;28;20054;-55
2021/10/30 14:03:43;;;;;;;;;;;;;;;;;;5026527;28;19982;-58
2021/10/30 14:06:09;;;;;;;;;;;;;;;;;;5026740;28;19925;-58
2021/10/30 14:08:36;;;;;;;;;;;;;;;;;;5027964;28;19952;-58
2021/10/30 14:11:03;;;;;;;;;;;;;;;;;;5025822;28;19925;-60
2021/10/30 14:13:30;;;;;;;;;;;;;;;;;;5024405;28;19933;-59
2021/10/30 14:15:57;;;;;;;;;;;;;;;;;;5026258;28;19925;-61
2021/10/30 14:18:27;;;;;;;;;;;;;;;;;;5028249;28;19931;-59
2021/10/30 14:20:54;;;;;;;;;;;;;;;;;;5026452;28;19925;-57
2021/10/30 14:23:21;;;;;;;;;;;;;;;;;;5028438;28;19956;-59
2021/10/30 14:25:49;;;;;;;;;;;;;;;;;;5028871;28;19925;-59
2021/10/30 14:28:15;;;;;;;;;;;;;;;;;;5028580;28;20389;-55
2021/10/30 14:30:42;;;;;;;;;;;;;;;;;;5025624;28;19932;-58
2021/10/30 14:33:09;;;;;;;;;;;;;;;;;;5024733;28;19931;-55
2021/10/30 14:35:36;;;;;;;;;;;;;;;;;;5025549;28;19929;-59
2021/10/30 14:38:03;;;;;;;;;;;;;;;;;;5031125;28;20019;-59
2021/10/30 14:40:30;;;;;;;;;;;;;;;;;;5027440;28;20020;-58
2021/10/30 14:42:57;;;;;;;;;;;;;;;;;;5028131;28;19930;-57
2021/10/30 14:45:25;;;;;;;;;;;;;;;;;;5028057;28;19925;-58
2021/10/30 14:47:55;;;;;;;;;;;;;;;;;;5024381;28;20032;-57
2021/10/30 14:50:22;;;;;;;;;;;;;;;;;;5026682;28;19929;-59
2021/10/30 14:52:49;;;;;;;;;;;;;;;;;;5026120;28;20276;-59
2021/10/30 14:55:15;;;;;;;;;;;;;;;;;;5027074;28;19925;-58
2021/10/30 14:57:42;;;;;;;;;;;;;;;;;;5024311;28;20015;-58
2021/10/30 15:00:09;;;;;;;;;;;;;;;;;;5022712;28;19951;-59
2021/10/30 15:02:36;;;;;;;;;;;;;;;;;;5025404;28;19925;-57
2021/10/30 15:05:03;;;;;;;;;;;;;;;;;;5024834;28;19943;-57
2021/10/30 15:07:30;;;;;;;;;;;;;;;;;;5027166;28;19925;-59
2021/10/30 15:09:57;;;;;;;;;;;;;;;;;;5029711;28;20428;-56
2021/10/30 15:12:24;;;;;;;;;;;;;;;;;;5025593;28;19931;-59
2021/10/30 15:14:51;;;;;;;;;;;;;;;;;;5028669;28;19947;-59
2021/10/30 15:17:18;;;;;;;;;;;;;;;;;;5025493;28;20036;-59
2021/10/30 15:19:45;;;;;;;;;;;;;;;;;;5028618;28;19925;-56
2021/10/30 15:22:12;;;;;;;;;;;;;;;;;;5027213;28;19932;-59
2021/10/30 15:24:43;;;;;;;;;;;;;;;;;;5026581;28;19925;-55
2021/10/30 15:27:10;;;;;;;;;;;;;;;;;;5026060;28;19932;-59
2021/10/30 15:29:37;;;;;;;;;;;;;;;;;;5022958;28;19933;-55
2021/10/30 15:32:04;;;;;;;;;;;;;;;;;;5027820;28;19925;-58
2021/10/30 15:34:32;;;;;;;;;;;;;;;;;;5027509;28;19925;-58
2021/10/30 15:37:03;;;;;;;;;;;;;;;;;;5027335;28;19929;-58
2021/10/30 15:39:30;;;;;;;;;;;;;;;;;;5023530;28;19925;-60
2021/10/30 15:41:57;;;;;;;;;;;;;;;;;;5021959;28;19951;-59
2021/10/30 15:44:24;;;;;;;;;;;;;;;;;;5024516;28;20024;-57
2021/10/30 15:46:51;;;;;;;;;;;;;;;;;;5022685;28;19947;-59
2021/10/30 15:49:18;;;;;;;;;;;;;;;;;;5024811;28;19925;-59
2021/10/30 15:51:45;;;;;;;;;;;;;;;;;;5024163;28;20421;-59
2021/10/30 15:54:12;;;;;;;;;;;;;;;;;;5026489;28;19925;-58
2021/10/30 15:56:40;;;;;;;;;;;;;;;;;;5027618;28;19925;-61
2021/10/30 15:59:07;;;;;;;;;;;;;;;;;;5025353;28;19929;-57
2021/10/30 16:01:34;;;;;;;;;;;;;;;;;;5026698;28;19925;-60
2021/10/30 16:04:01;;;;;;;;;;;;;;;;;;5025211;28;19925;-56
2021/10/30 16:06:28;;;;;;;;;;;;;;;;;;5022898;28;20401;-59
2021/10/30 16:08:56;;;;;;;;;;;;;;;;;;5024882;28;20372;-58
2021/10/30 16:11:23;;;;;;;;;;;;;;;;;;5025396;28;20378;-58
2021/10/30 16:13:50;;;;;;;;;;;;;;;;;;5022947;28;19925;-60
2021/10/30 16:16:17;;;;;;;;;;;;;;;;;;5026812;28;20354;-59
2021/10/30 16:18:45;;;;;;;;;;;;;;;;;;5024577;28;19936;-60
2021/10/30 16:21:12;;;;;;;;;;;;;;;;;;5023723;28;20421;-59
2021/10/30 16:23:39;;;;;;;;;;;;;;;;;;5024902;28;19937;-60
2021/10/30 16:26:06;;;;;;;;;;;;;;;;;;5025487;28;19931;-59
2021/10/30 16:28:33;;;;;;;;;;;;;;;;;;5026479;28;19925;-60
2021/10/30 16:31:00;;;;;;;;;;;;;;;;;;5027482;28;20301;-59
2021/10/30 16:33:27;;;;;;;;;;;;;;;;;;5026429;28;19929;-59
2021/10/30 16:35:54;;;;;;;;;;;;;;;;;;5023757;28;20115;-58
2021/10/30 16:38:21;;;;;;;;;;;;;;;;;;5027631;28;19936;-58
2021/10/30 16:40:48;;;;;;;;;;;;;;;;;;5027280;28;21501;-58
2021/10/30 16:43:19;;;;;;;;;;;;;;;;;;5022845;28;20296;-56
2021/10/30 16:45:46;;;;;;;;;;;;;;;;;;5023412;28;20408;-60